Time;durP1;ratioP1;P1;durP2;ratioP2;P2;SDS_P1;SDS_P2;PMS_P1;PMS_P2;Temp;Humidity;BMP_temperature;BMP_pressure;BME280_temperature;BME280_humidity;BME280_pressure;Samples;Min_cycle;Max_cycle;Signal;HPM_P1;HPM_P2
2022/01/27 11:01:33;;;;;;;23.00;10.97;;;;;;;9.55;40.74;101106.75;6514613;27;341625;-94
2022/01/27 11:04:43;;;;;;;20.97;11.00;;;;;;;8.74;41.76;101111.13;6497231;27;43804;-93
2022/01/27 11:08:02;;;;;;;23.23;11.10;;;;;;;10.58;38.43;101084.00;6538800;27;35341;-96
2022/01/27 11:11:13;;;;;;;22.67;11.43;;;;;;;11.00;36.86;101084.50;6521629;27;44212;-95
2022/01/27 11:14:23;;;;;;;21.53;11.07;;;;;;;8.51;42.44;101114.19;6528112;27;33616;-96
2022/01/27 11:17:30;;;;;;;24.40;12.00;;;;;;;6.97;45.20;101119.22;6527102;27;35163;-95
2022/01/27 11:24:05;;;;;;;27.47;10.33;;;;;;;6.97;46.33;101111.37;6502509;27;34316;-90
2022/01/27 11:27:09;;;;;;;24.57;9.77;;;;;;;7.44;44.89;101105.50;6494202;27;44643;-94
2022/01/27 11:30:33;;;;;;;21.50;10.13;;;;;;;8.80;42.08;101086.53;6539933;27;34421;-95
2022/01/27 11:33:58;;;;;;;23.20;10.53;;;;;;;7.73;43.73;101091.09;6514395;27;42876;-96
2022/01/27 11:37:05;;;;;;;26.83;10.27;;;;;;;6.68;47.15;101085.59;6508814;27;35654;-94
2022/01/27 11:40:12;;;;;;;24.60;10.53;;;;;;;7.26;45.86;101077.00;6480496;27;43195;-96
2022/01/27 11:43:39;;;;;;;21.53;10.27;;;;;;;6.96;45.71;101054.78;6538989;26;37029;-96
2022/01/27 11:47:14;;;;;;;23.57;11.07;;;;;;;8.30;42.93;101043.81;6562023;26;35364;-95
2022/01/27 11:50:35;;;;;;;24.83;10.83;;;;;;;9.28;40.95;101057.53;6589588;26;35352;-95
2022/01/27 11:53:43;;;;;;;22.53;10.67;;;;;;;9.69;40.00;101043.41;6557100;26;44559;-92
2022/01/27 11:56:48;;;;;;;24.37;10.87;;;;;;;9.27;40.65;101047.91;6547057;26;33734;-95
2022/01/27 12:00:07;;;;;;;26.40;11.63;;;;;;;9.78;39.94;101053.66;6571535;26;35647;-94
2022/01/27 12:03:14;;;;;;;22.30;10.83;;;;;;;9.02;41.14;101053.75;6551815;26;44144;-93
2022/01/27 12:06:20;;;;;;;20.77;10.90;;;;;;;8.19;43.30;101051.06;6553756;26;34662;-93
2022/01/27 12:09:26;;;;;;;26.03;10.73;;;;;;;8.24;43.54;101046.56;6549146;26;35278;-95
2022/01/27 12:12:32;;;;;;;25.13;11.50;;;;;;;9.26;41.41;101035.72;6562416;26;35109;-94
2022/01/27 12:16:26;;;;;;;20.10;10.13;;;;;;;7.42;44.70;101049.75;6539332;26;44531;-96
2022/01/27 12:19:44;;;;;;;20.33;9.97;;;;;;;8.10;44.61;101045.06;6540140;26;34119;-93
2022/01/27 12:22:51;;;;;;;25.93;11.37;;;;;;;9.55;41.31;101030.63;6568267;26;34271;-96
2022/01/27 12:25:58;;;;;;;26.20;12.50;;;;;;;10.15;39.05;101034.34;6542326;26;34383;-95
2022/01/27 12:29:01;;;;;;;22.23;12.00;;;;;;;11.37;36.75;101020.22;6560550;26;35136;-95
2022/01/27 12:32:25;;;;;;;23.95;11.93;;;;;;;10.80;37.89;101019.34;6539825;26;33571;-93
2022/01/27 12:35:29;;;;;;;23.63;12.17;;;;;;;9.51;40.08;101021.09;6563771;26;34404;-96
2022/01/27 12:38:44;;;;;;;25.03;12.57;;;;;;;8.69;42.11;101010.75;6542225;26;42954;-96
2022/01/27 12:41:54;;;;;;;24.93;12.00;;;;;;;9.23;41.02;100974.56;6557743;26;34126;-95
2022/01/27 12:45:14;;;;;;;28.97;13.43;;;;;;;8.79;42.38;100993.09;6564015;26;33716;-94
2022/01/27 12:48:26;;;;;;;28.30;12.73;;;;;;;8.48;43.09;100971.91;6562384;26;34126;-96
2022/01/27 12:51:55;;;;;;;30.87;15.67;;;;;;;9.00;42.30;100976.00;6538594;26;35059;-95
2022/01/27 12:55:03;;;;;;;28.60;13.20;;;;;;;7.92;44.72;100984.34;6568896;26;34223;-96
2022/01/27 12:58:20;;;;;;;27.97;12.77;;;;;;;8.49;43.29;100978.88;6531768;26;36159;-96
2022/01/27 13:01:24;;;;;;;;;;;;;;;9.08;41.41;100969.69;6530149;26;33543;-93
2022/01/27 13:04:32;;;;;;;28.73;12.73;;;;;;;8.02;44.06;100962.34;6584639;26;33261;-94
2022/01/27 13:07:42;;;;;;;24.77;12.67;;;;;;;8.26;43.47;100945.28;6532896;26;42568;-96
2022/01/27 13:10:56;;;;;;;27.40;13.63;;;;;;;7.75;44.88;100946.28;6518624;26;34499;-94
2022/01/27 13:14:06;;;;;;;27.00;12.67;;;;;;;6.89;47.00;100933.78;6566814;26;36603;-95
2022/01/27 13:20:56;;;;;;;31.67;12.18;;;;;;;7.94;44.81;100933.69;6539292;26;34578;-94
2022/01/27 13:24:07;;;;;;;27.67;13.50;;;;;;;8.28;43.66;100930.41;6554772;26;33449;-94
2022/01/27 13:27:12;;;;;;;26.13;12.93;;;;;;;8.26;43.73;100932.19;6519451;26;44249;-93
2022/01/27 13:30:20;;;;;;;26.53;13.00;;;;;;;8.69;42.80;100934.75;6577300;26;35535;-94
2022/01/27 13:33:24;;;;;;;26.10;13.05;;;;;;;9.03;42.28;100929.59;6543155;26;34097;-94
2022/01/27 13:36:27;;;;;;;28.03;13.93;;;;;;;11.22;37.79;100910.22;6532976;26;33737;-94
2022/01/27 13:39:47;;;;;;;;;;;;;;;11.46;36.62;100903.25;6545320;26;35169;-93
2022/01/27 13:42:55;;;;;;;28.57;13.33;;;;;;;12.27;35.20;100903.84;6569259;26;35442;-94
2022/01/27 13:45:59;;;;;;;30.30;14.57;;;;;;;11.10;36.97;100906.22;6557653;26;34213;-96
2022/01/27 13:49:05;;;;;;;;;;;;;;;10.21;38.58;100903.69;6563162;26;33908;-95
2022/01/27 13:52:12;;;;;;;29.83;14.37;;;;;;;9.69;40.51;100885.94;6547502;27;46236;-94
2022/01/27 13:55:23;;;;;;;30.20;15.20;;;;;;;10.37;39.19;100882.22;6527526;26;34065;-95
2022/01/27 13:58:33;;;;;;;26.30;13.27;;;;;;;13.28;33.82;100855.81;6542621;27;35206;-95
2022/01/27 14:01:40;;;;;;;25.43;14.63;;;;;;;12.66;34.74;100869.78;6510450;27;43348;-94
2022/01/27 14:04:53;;;;;;;35.30;13.90;;;;;;;10.79;38.07;100878.28;6510210;27;34421;-96
2022/01/27 14:08:04;;;;;;;26.13;14.17;;;;;;;10.92;38.33;100878.75;6545361;27;35492;-96
2022/01/27 14:11:15;;;;;;;32.43;15.73;;;;;;;11.51;37.28;100844.25;6549672;27;44182;-93
2022/01/27 14:14:18;;;;;;;29.83;14.93;;;;;;;10.03;40.52;100865.69;6576625;27;33092;-94
2022/01/27 14:17:25;;;;;;;31.23;15.40;;;;;;;10.39;40.43;100855.03;6555919;26;33967;-96
2022/01/27 14:20:37;;;;;;;31.93;13.83;;;;;;;9.87;41.87;100867.03;6613796;26;32607;-94
2022/01/27 14:24:08;;;;;;;31.90;14.83;;;;;;;9.59;42.63;100856.44;6571195;26;33239;-95
2022/01/27 14:27:12;;;;;;;;;;;;;;;9.25;43.36;100860.87;6584809;26;42971;-95
2022/01/27 14:30:17;;;;;;;30.65;13.95;;;;;;;8.97;44.17;100853.72;6588986;26;34083;-94
2022/01/27 14:33:21;;;;;;;31.03;14.03;;;;;;;8.82;44.67;100854.97;6555579;26;33861;-93
2022/01/27 14:36:27;;;;;;;30.17;13.57;;;;;;;8.60;45.33;100851.97;6536659;26;34799;-93
2022/01/27 14:39:31;;;;;;;29.50;14.10;;;;;;;8.39;45.85;100847.25;6540201;26;32297;-93
2022/01/27 14:42:35;;;;;;;31.23;13.83;;;;;;;8.40;45.62;100846.34;6533372;26;35033;-94
2022/01/27 14:45:38;;;;;;;33.13;14.53;;;;;;;8.32;45.99;100840.41;6598465;26;36305;-93
2022/01/27 14:49:02;;;;;;;34.03;14.85;;;;;;;7.96;46.70;100831.59;6563972;26;34862;-94
2022/01/27 14:52:10;;;;;;;38.55;16.27;;;;;;;8.05;46.87;100836.59;6528629;26;44340;-95
2022/01/27 14:55:23;;;;;;;34.70;14.53;;;;;;;7.30;48.92;100836.38;6578657;26;33805;-94
2022/01/27 14:58:30;;;;;;;36.13;16.37;;;;;;;8.18;46.81;100837.19;6567181;26;36469;-96
2022/01/27 15:01:33;;;;;;;34.17;16.17;;;;;;;7.54;48.26;100834.19;6524670;26;34571;-94
2022/01/27 15:04:36;;;;;;;32.90;15.60;;;;;;;7.72;48.84;100841.66;6555100;26;42897;-95
2022/01/27 15:07:41;;;;;;;30.77;14.52;;;;;;;8.09;47.85;100830.44;6589481;26;34236;-95
2022/01/27 15:10:54;;;;;;;36.00;16.73;;;;;;;7.52;49.67;100830.72;6533376;26;35371;-96
2022/01/27 15:18:48;;;;;;;32.73;13.47;;;;;;;7.74;49.17;100815.47;6563007;26;34104;-94
2022/01/27 15:20:47;;;;;;;37.13;18.00;;;;;;;7.17;51.14;100813.09;6580116;26;34691;-94
2022/01/27 15:23:55;;;;;;;35.53;16.60;;;;;;;7.41;50.49;100798.72;6523099;26;34815;-96
2022/01/27 15:27:05;;;;;;;34.50;15.17;;;;;;;7.52;49.71;100800.19;6507939;26;33517;-95
2022/01/27 15:30:08;;;;;;;35.87;16.93;;;;;;;7.33;50.03;100796.22;6572311;26;44455;-94
2022/01/27 15:33:15;;;;;;;33.50;16.33;;;;;;;7.18;50.36;100789.53;6580124;26;33735;-94
2022/01/27 15:36:22;;;;;;;31.67;15.40;;;;;;;7.16;50.21;100801.78;6570217;26;36519;-94
2022/01/27 15:39:54;;;;;;;24.87;11.50;;;;;;;7.19;50.04;100806.94;6560690;26;34400;-94
2022/01/27 15:42:59;;;;;;;34.40;15.17;;;;;;;6.72;51.14;100786.88;6568896;26;35442;-95
2022/01/27 15:46:02;;;;;;;31.77;13.77;;;;;;;6.92;50.40;100795.25;6555966;26;33865;-96
2022/01/27 15:49:08;;;;;;;33.40;14.53;;;;;;;6.91;50.25;100783.06;6567122;26;44266;-93
2022/01/27 15:52:11;;;;;;;34.03;11.80;;;;;;;7.14;49.90;100800.06;6530443;26;35021;-96
2022/01/27 15:55:17;;;;;;;25.77;13.50;;;;;;;7.13;49.14;100785.28;6547633;26;33937;-92
2022/01/27 15:58:20;;;;;;;;;;;;;;;6.76;50.39;100780.69;6549482;26;34284;-91
2022/01/27 16:01:29;;;;;;;21.83;10.07;;;;;;;6.91;49.95;100790.03;6578669;26;35833;-95
2022/01/27 16:04:33;;;;;;;27.07;12.27;;;;;;;6.52;50.49;100784.59;6555530;26;33689;-94
2022/01/27 16:07:43;;;;;;;24.10;11.37;;;;;;;6.58;50.52;100776.69;6556306;26;45529;-95
2022/01/27 16:10:52;;;;;;;24.40;11.87;;;;;;;6.62;50.17;100774.84;6588616;26;34385;-93
2022/01/27 16:13:57;;;;;;;24.20;12.33;;;;;;;6.68;50.44;100775.63;6558356;26;32757;-93
2022/01/27 16:17:00;;;;;;;24.80;11.77;;;;;;;6.87;49.56;100755.25;6551518;26;34047;-95
2022/01/27 16:20:07;;;;;;;22.87;11.38;;;;;;;7.00;48.99;100745.44;6595691;26;36303;-92
2022/01/27 16:23:13;;;;;;;26.27;12.17;;;;;;;6.70;49.79;100770.38;6556282;26;44380;-95
2022/01/27 16:26:17;;;;;;;25.07;11.93;;;;;;;6.72;50.20;100768.59;6549541;26;33626;-94
2022/01/27 16:29:25;;;;;;;24.77;12.40;;;;;;;6.94;49.59;100764.72;6565499;26;35348;-95
2022/01/27 16:32:28;;;;;;;28.57;12.40;;;;;;;6.85;49.66;100771.88;6566070;26;35136;-91
2022/01/27 16:35:32;;;;;;;30.97;12.97;;;;;;;6.71;50.02;100764.28;6517146;26;35119;-93
2022/01/27 16:38:35;;;;;;;27.52;12.35;;;;;;;6.74;49.96;100757.22;6561583;26;44401;-95
2022/01/27 16:41:37;;;;;;;25.83;12.33;;;;;;;6.56;50.30;100735.78;6560860;26;32550;-92
2022/01/27 16:44:40;;;;;;;26.03;11.77;;;;;;;6.72;50.32;100752.94;6548127;26;36502;-93
2022/01/27 16:47:46;;;;;;;27.05;12.80;;;;;;;6.41;50.91;100747.34;6569397;26;35483;-92
2022/01/27 16:50:49;;;;;;;27.17;13.60;;;;;;;6.45;50.74;100735.97;6543804;26;33936;-94
2022/01/27 16:53:56;;;;;;;27.15;12.40;;;;;;;6.60;50.60;100750.53;6579689;26;33077;-95
2022/01/27 16:57:00;;;;;;;23.97;12.40;;;;;;;6.13;51.69;100752.16;6544453;26;36167;-95
2022/01/27 17:00:04;;;;;;;;;;;;;;;6.75;50.01;100743.28;6541567;26;34529;-94
2022/01/27 17:03:07;;;;;;;26.27;12.50;;;;;;;6.83;49.69;100750.09;6584582;26;44387;-93
2022/01/27 17:06:10;;;;;;;27.90;12.65;;;;;;;6.45;50.66;100738.59;6515825;26;36367;-94
2022/01/27 17:09:13;;;;;;;;;;;;;;;6.38;51.00;100743.06;6580067;26;34791;-96
2022/01/27 17:12:16;;;;;;;27.83;14.50;;;;;;;6.09;51.80;100721.75;6556119;26;34202;-92
2022/01/27 17:15:19;;;;;;;29.03;13.47;;;;;;;5.86;52.70;100737.69;6585589;26;34242;-93
2022/01/27 17:18:23;;;;;;;31.10;13.63;;;;;;;5.77;52.89;100720.44;6584962;26;36475;-93
2022/01/27 17:21:26;;;;;;;28.20;12.97;;;;;;;5.97;52.29;100728.03;6565969;26;33778;-93
2022/01/27 17:24:29;;;;;;;28.33;13.50;;;;;;;6.08;52.11;100720.03;6548829;26;33811;-93
2022/01/27 17:27:32;;;;;;;;;;;;;;;6.10;52.06;100721.72;6561337;26;33887;-93
2022/01/27 17:30:38;;;;;;;26.83;13.27;;;;;;;6.23;51.73;100728.47;6577183;26;44007;-94
2022/01/27 17:33:41;;;;;;;29.10;13.43;;;;;;;6.18;51.81;100737.25;6551875;26;34218;-94
2022/01/27 17:36:43;;;;;;;37.13;15.03;;;;;;;6.35;51.38;100722.19;6550604;26;33873;-92
2022/01/27 17:39:46;;;;;;;29.90;14.33;;;;;;;5.59;53.22;100723.31;6560615;26;34035;-94
2022/01/27 17:43:05;;;;;;;30.57;14.60;;;;;;;6.35;51.60;100721.34;6565626;26;35073;-93
2022/01/27 17:46:09;;;;;;;29.67;15.20;;;;;;;6.37;51.50;100716.94;6558469;26;44434;-94
2022/01/27 17:49:12;;;;;;;29.08;14.25;;;;;;;5.23;54.66;100722.03;6555298;26;34052;-94
2022/01/27 17:52:15;;;;;;;29.80;14.13;;;;;;;6.29;51.86;100726.66;6575221;26;34938;-94
2022/01/27 17:55:21;;;;;;;31.60;16.13;;;;;;;6.60;51.01;100729.63;6521921;26;32739;-92
2022/01/27 17:58:24;;;;;;;30.00;14.85;;;;;;;6.57;50.62;100727.94;6525653;26;35246;-92
2022/01/27 18:01:27;;;;;;;30.60;13.80;;;;;;;6.48;51.25;100718.50;6587306;26;33953;-93
2022/01/27 18:04:31;;;;;;;31.65;13.80;;;;;;;6.45;50.94;100726.41;6566893;26;34228;-92
2022/01/27 18:07:34;;;;;;;29.20;14.82;;;;;;;6.18;51.72;100713.78;6563397;26;34215;-92
2022/01/27 18:10:36;;;;;;;33.27;13.23;;;;;;;5.78;52.91;100708.28;6580200;26;34073;-93
2022/01/27 18:13:40;;;;;;;31.87;14.75;;;;;;;5.86;52.66;100715.13;6590295;26;33941;-92
2022/01/27 18:16:45;;;;;;;29.77;15.13;;;;;;;5.69;53.18;100709.28;6579404;26;32653;-96
2022/01/27 18:19:52;;;;;;;29.73;15.03;;;;;;;5.33;54.31;100716.69;6575575;26;32654;-94
2022/01/27 18:22:54;;;;;;;29.30;14.77;;;;;;;5.44;53.93;100713.94;6586255;26;34659;-94
2022/01/27 18:25:57;;;;;;;33.47;15.37;;;;;;;5.48;53.78;100694.78;6539778;26;34162;-94
2022/01/27 18:29:03;;;;;;;31.83;15.53;;;;;;;5.87;53.20;100702.94;6566140;26;35078;-93
2022/01/27 18:32:06;;;;;;;33.97;16.00;;;;;;;5.89;52.65;100683.75;6560811;26;44435;-92
2022/01/27 18:35:09;;;;;;;32.13;14.00;;;;;;;5.60;53.49;100694.63;6537349;26;34799;-92
2022/01/27 18:38:12;;;;;;;30.90;16.20;;;;;;;5.79;53.12;100689.97;6561542;26;35612;-94
2022/01/27 18:41:16;;;;;;;32.43;15.33;;;;;;;5.65;53.61;100692.78;6542586;26;34953;-94
2022/01/27 18:44:22;;;;;;;32.60;15.97;;;;;;;5.97;52.78;100683.66;6581805;26;33042;-92
2022/01/27 18:47:25;;;;;;;33.13;15.83;;;;;;;5.89;52.90;100670.72;6556050;26;33235;-94
2022/01/27 18:50:29;;;;;;;32.33;15.40;;;;;;;5.61;53.84;100691.13;6539362;26;33326;-95
2022/01/27 18:53:34;;;;;;;31.60;16.23;;;;;;;5.54;54.24;100678.16;6533404;26;44765;-94
2022/01/27 18:56:40;;;;;;;32.97;15.57;;;;;;;5.74;53.17;100665.75;6563995;26;33377;-93
2022/01/27 18:59:45;;;;;;;30.17;15.03;;;;;;;6.01;52.78;100674.06;6564932;26;35724;-96
2022/01/27 19:02:50;;;;;;;32.80;16.97;;;;;;;5.67;53.56;100690.19;6533773;26;34192;-93
2022/01/27 19:05:53;;;;;;;29.40;15.33;;;;;;;5.77;53.44;100680.47;6573225;26;34322;-93
2022/01/27 19:08:55;;;;;;;33.03;16.60;;;;;;;5.82;53.13;100676.91;6547326;26;33715;-94
2022/01/27 19:11:58;;;;;;;30.42;14.40;;;;;;;6.04;52.70;100676.59;6563351;26;32758;-94
2022/01/27 19:15:09;;;;;;;30.50;15.37;;;;;;;5.49;53.60;100674.78;6569317;26;43637;-94
2022/01/27 19:18:12;;;;;;;30.55;14.68;;;;;;;5.84;53.01;100672.53;6551391;26;33867;-94
2022/01/27 19:21:15;;;;;;;32.92;16.17;;;;;;;6.05;52.14;100667.87;6562365;26;34944;-95
2022/01/27 19:24:18;;;;;;;33.60;15.70;;;;;;;5.63;53.40;100675.47;6507143;26;33546;-93
2022/01/27 19:27:23;;;;;;;32.40;17.03;;;;;;;5.47;53.70;100673.94;6545497;26;35376;-93
2022/01/27 19:30:27;;;;;;;32.63;15.90;;;;;;;6.07;52.60;100677.44;6555531;26;33147;-92
2022/01/27 19:33:30;;;;;;;31.83;14.73;;;;;;;5.93;52.66;100671.56;6539974;26;36726;-93
2022/01/27 19:36:36;;;;;;;35.58;16.50;;;;;;;5.61;53.53;100678.09;6536260;26;34914;-92
2022/01/27 19:39:39;;;;;;;33.50;16.07;;;;;;;5.64;53.47;100680.63;6545724;26;44043;-94
2022/01/27 19:42:42;;;;;;;31.50;16.05;;;;;;;5.76;52.93;100681.34;6577373;26;34019;-93
2022/01/27 19:45:45;;;;;;;30.07;15.90;;;;;;;5.94;52.72;100666.31;6523361;26;34052;-94
2022/01/27 19:48:48;;;;;;;29.93;14.50;;;;;;;5.98;52.10;100649.72;6578333;26;35247;-94
2022/01/27 19:51:52;;;;;;;35.63;17.07;;;;;;;5.89;52.55;100668.09;6553287;26;33873;-94
2022/01/27 19:54:56;;;;;;;31.77;14.63;;;;;;;5.66;53.57;100678.00;6570446;26;32626;-95
2022/01/27 19:57:59;;;;;;;35.47;17.10;;;;;;;5.58;53.32;100646.81;6590614;26;36147;-96
2022/01/27 20:01:02;;;;;;;36.90;16.00;;;;;;;5.47;54.04;100656.53;6546695;26;33509;-93
2022/01/27 20:04:10;;;;;;;27.77;15.50;;;;;;;5.65;53.68;100664.09;6545899;26;44197;-93
2022/01/27 20:07:17;;;;;;;34.17;16.40;;;;;;;5.43;54.00;100665.31;6546869;26;35839;-94
2022/01/27 20:10:21;;;;;;;32.90;16.20;;;;;;;5.46;54.13;100670.47;6579952;26;32780;-91
2022/01/27 20:13:23;;;;;;;41.97;17.50;;;;;;;5.31;54.45;100675.88;6566317;26;33401;-95
2022/01/27 20:16:32;;;;;;;32.47;16.63;;;;;;;5.51;54.28;100675.62;6543781;26;35381;-95
2022/01/27 20:19:38;;;;;;;34.97;17.13;;;;;;;5.83;53.00;100668.19;6543197;26;43768;-92
2022/01/27 20:22:45;;;;;;;34.10;15.93;;;;;;;5.62;53.22;100645.91;6544939;26;33431;-93
2022/01/27 20:25:47;;;;;;;37.43;18.27;;;;;;;5.52;53.76;100656.47;6548774;26;35000;-93
2022/01/27 20:28:50;;;;;;;35.40;18.13;;;;;;;5.02;55.21;100637.16;6555594;26;37703;-94
2022/01/27 20:31:53;;;;;;;38.17;18.43;;;;;;;5.25;54.72;100640.34;6573187;26;34140;-93
2022/01/27 20:35:18;;;;;;;35.27;17.03;;;;;;;5.26;54.98;100643.81;6570547;26;34556;-92
2022/01/27 20:38:22;;;;;;;35.70;17.73;;;;;;;5.30;54.77;100635.94;6527667;26;34134;-92
2022/01/27 20:41:25;;;;;;;36.17;18.67;;;;;;;5.01;55.41;100620.66;6570777;26;33758;-94
2022/01/27 20:44:29;;;;;;;36.50;18.12;;;;;;;5.82;53.21;100622.12;6505950;26;34817;-96
2022/01/27 20:47:34;;;;;;;36.08;18.95;;;;;;;5.94;52.76;100621.97;6539955;26;34370;-92
2022/01/27 20:50:37;;;;;;;41.97;18.97;;;;;;;5.88;52.62;100622.03;6562607;26;43039;-92
2022/01/27 20:53:46;;;;;;;34.80;17.90;;;;;;;5.55;54.09;100627.78;6538845;26;35526;-92
2022/01/27 20:56:49;;;;;;;40.93;18.43;;;;;;;6.18;51.71;100623.31;6571072;26;35852;-93
2022/01/27 20:59:52;;;;;;;36.57;18.93;;;;;;;5.52;53.68;100618.25;6557699;26;34561;-93
2022/01/27 21:02:54;;;;;;;33.07;17.30;;;;;;;5.75;52.70;100622.25;6567215;26;33904;-94
2022/01/27 21:05:57;;;;;;;33.27;17.50;;;;;;;5.59;52.99;100622.47;6558644;26;34518;-93
2022/01/27 21:08:59;;;;;;;33.63;17.47;;;;;;;5.58;53.04;100610.31;6526079;26;34645;-92
2022/01/27 21:12:03;;;;;;;27.97;15.60;;;;;;;6.66;50.57;100620.69;6546531;26;34181;-93
2022/01/27 21:15:09;;;;;;;31.23;16.43;;;;;;;5.95;51.22;100620.22;6538009;26;44488;-92
2022/01/27 21:18:13;;;;;;;28.30;14.37;;;;;;;6.30;50.94;100630.03;6532242;26;33805;-94
2022/01/27 21:21:18;;;;;;;30.10;15.98;;;;;;;6.09;50.97;100620.84;6515114;26;33766;-93
2022/01/27 21:24:20;;;;;;;28.87;14.13;;;;;;;6.73;49.74;100630.13;6516625;26;35604;-94
2022/01/27 21:27:23;;;;;;;25.67;12.07;;;;;;;5.96;50.85;100614.13;6516558;26;35976;-93
2022/01/27 21:30:27;;;;;;;24.02;12.32;;;;;;;6.55;49.40;100603.50;6520071;26;34430;-93
2022/01/27 21:33:34;;;;;;;24.70;11.47;;;;;;;6.39;50.26;100619.44;6558688;26;33995;-92
2022/01/27 21:36:41;;;;;;;21.43;10.63;;;;;;;7.03;48.54;100623.44;6540914;26;43623;-92
2022/01/27 21:39:44;;;;;;;20.83;9.03;;;;;;;6.68;49.20;100620.66;6554504;26;34337;-95
2022/01/27 21:42:47;;;;;;;21.33;9.45;;;;;;;6.88;49.06;100635.94;6544445;26;37053;-94
2022/01/27 21:45:53;;;;;;;20.55;8.82;;;;;;;6.61;50.12;100642.56;6575536;26;35201;-95
2022/01/27 21:48:59;;;;;;;23.33;9.80;;;;;;;6.11;51.38;100636.47;6532669;26;35388;-93
2022/01/27 21:52:02;;;;;;;19.20;9.45;;;;;;;5.61;53.26;100648.56;6530358;26;35287;-92
2022/01/27 21:55:06;;;;;;;19.58;9.57;;;;;;;6.34;51.68;100633.47;6567518;26;44517;-92
2022/01/27 21:58:08;;;;;;;19.35;9.25;;;;;;;5.68;53.24;100635.38;6557977;26;34500;-95
2022/01/27 22:01:13;;;;;;;19.23;8.85;;;;;;;6.06;52.02;100633.09;6531134;26;35121;-93
2022/01/27 22:04:17;;;;;;;21.53;9.53;;;;;;;6.03;52.93;100639.22;6538443;26;35014;-92
2022/01/27 22:07:22;;;;;;;20.57;9.03;;;;;;;5.19;54.96;100643.03;6523396;26;34816;-92
2022/01/27 22:10:26;;;;;;;21.13;10.03;;;;;;;6.16;52.76;100619.84;6558188;26;33773;-94
2022/01/27 22:13:31;;;;;;;22.40;10.57;;;;;;;5.76;53.84;100637.88;6524543;26;34246;-94
2022/01/27 22:16:34;;;;;;;21.67;9.63;;;;;;;5.68;54.71;100653.66;6572816;26;33914;-92
2022/01/27 22:19:37;;;;;;;20.47;9.80;;;;;;;5.59;54.89;100651.16;6548488;26;44400;-94
2022/01/27 22:22:43;;;;;;;21.20;10.53;;;;;;;4.86;57.86;100662.53;6556700;26;34266;-94
2022/01/27 22:25:46;;;;;;;20.33;10.13;;;;;;;4.70;59.21;100654.03;6484525;26;37005;-92
2022/01/27 22:28:49;;;;;;;20.57;10.00;;;;;;;4.94;58.33;100629.44;6539926;26;34120;-94
2022/01/27 22:31:52;;;;;;;21.03;9.70;;;;;;;5.59;57.15;100645.06;6535851;26;34264;-95
2022/01/27 22:34:55;;;;;;;20.37;9.20;;;;;;;5.83;56.14;100649.94;6548659;26;32905;-95
2022/01/27 22:37:59;;;;;;;20.67;9.38;;;;;;;5.02;58.77;100640.63;6556694;26;34038;-93
2022/01/27 22:41:02;;;;;;;16.67;8.30;;;;;;;5.77;57.37;100650.03;6542183;26;32913;-94
2022/01/27 22:44:10;;;;;;;20.03;9.30;;;;;;;5.88;57.18;100632.47;6550841;26;45159;-94
2022/01/27 22:47:13;;;;;;;16.07;7.07;;;;;;;5.91;57.16;100639.41;6568272;26;33899;-92
2022/01/27 22:50:19;;;;;;;16.27;7.78;;;;;;;5.10;61.54;100637.94;6521450;26;34087;-94
2022/01/27 22:53:23;;;;;;;17.87;8.23;;;;;;;4.78;63.03;100643.53;6551604;26;33834;-93
2022/01/27 22:56:26;;;;;;;15.80;8.15;;;;;;;4.29;65.85;100654.44;6542576;26;36354;-93
2022/01/27 22:59:28;;;;;;;15.80;7.33;;;;;;;4.75;64.27;100636.59;6530860;26;33599;-93
2022/01/27 23:02:31;;;;;;;15.80;8.17;;;;;;;4.61;64.80;100630.69;6564200;26;33485;-92
2022/01/27 23:05:34;;;;;;;16.50;8.40;;;;;;;5.34;62.12;100629.78;6545046;26;34076;-92
2022/01/27 23:08:42;;;;;;;14.95;7.30;;;;;;;4.61;64.67;100641.97;6529003;26;44634;-94
2022/01/27 23:11:46;;;;;;;21.07;9.03;;;;;;;4.10;67.54;100656.34;6530181;26;33060;-94
2022/01/27 23:14:56;;;;;;;19.55;8.63;;;;;;;4.34;66.37;100647.47;6535122;26;35015;-92
2022/01/27 23:21:26;;;;;;;19.07;9.40;;;;;;;5.07;63.58;100635.38;6564879;26;34058;-95
2022/01/27 23:24:36;;;;;;;18.73;9.23;;;;;;;4.41;65.89;100622.25;6531938;26;34348;-92
2022/01/27 23:27:40;;;;;;;20.23;9.77;;;;;;;4.86;65.69;100637.34;6541413;26;44478;-95
2022/01/27 23:30:50;;;;;;;;;;;;;;;4.76;65.68;100638.31;6566197;26;33747;-95
2022/01/27 23:33:55;;;;;;;22.37;9.50;;;;;;;4.27;68.02;100635.38;6560513;26;36002;-93
2022/01/27 23:37:03;;;;;;;19.63;8.83;;;;;;;4.69;66.52;100628.00;6568346;26;34144;-92
2022/01/27 23:40:27;;;;;;;18.77;9.00;;;;;;;4.37;67.76;100620.53;6547531;26;44500;-92
2022/01/27 23:49:46;;;;;;;19.37;8.60;;;;;;;4.80;65.58;100624.41;6524273;26;43471;-95
2022/01/27 23:53:05;;;;;;;17.50;9.23;;;;;;;4.70;66.87;100617.59;6575294;26;35566;-94
2022/01/27 23:56:21;;;;;;;21.20;10.33;;;;;;;4.65;66.41;100628.94;6566515;26;44668;-92
2022/01/27 23:59:44;;;;;;;19.73;9.60;;;;;;;5.53;63.95;100624.31;6505616;26;34060;-93
